Time;durP1;ratioP1;P1;durP2;ratioP2;P2;SDS_P1;SDS_P2;PMS_P1;PMS_P2;Temp;Humidity;BMP_temperature;BMP_pressure;BME280_temperature;BME280_humidity;BME280_pressure;Samples;Min_cycle;Max_cycle;Signal;HPM_P1;HPM_P2
2022/12/27 00:02:01;;;;;;;2.63;0.70;;;;;;;2.65;76.89;100628.69;5099137;28;20048;-59
2022/12/27 00:04:28;;;;;;;6.40;1.45;;;;;;;2.62;77.62;100628.56;5097389;28;20059;-60
2022/12/27 00:06:55;;;;;;;6.18;0.93;;;;;;;2.58;76.97;100635.25;5092117;28;20048;-58
2022/12/27 00:09:22;;;;;;;6.18;0.63;;;;;;;2.59;77.07;100633.56;5099196;28;20040;-60
2022/12/27 00:11:49;;;;;;;4.72;0.77;;;;;;;2.56;76.86;100624.97;5091910;28;20242;-58
2022/12/27 00:14:23;;;;;;;4.10;0.73;;;;;;;2.54;76.88;100626.56;5093350;28;20071;-60
2022/12/27 00:16:50;;;;;;;7.97;1.38;;;;;;;2.53;77.07;100645.28;5094313;28;20117;-59
2022/12/27 00:19:16;;;;;;;2.63;0.93;;;;;;;2.53;77.78;100640.19;5095707;28;20461;-58
2022/12/27 00:21:43;;;;;;;6.45;1.20;;;;;;;2.52;77.87;100642.66;5089889;28;20121;-59
2022/12/27 00:24:10;;;;;;;2.95;0.55;;;;;;;2.49;77.52;100645.97;5097602;28;20056;-56
2022/12/27 00:26:38;;;;;;;2.42;0.88;;;;;;;2.48;77.54;100641.69;5096089;27;20044;-56
2022/12/27 00:29:04;;;;;;;7.68;1.88;;;;;;;2.46;77.93;100643.31;5092322;28;20107;-58
2022/12/27 00:31:32;;;;;;;4.82;0.68;;;;;;;2.44;76.88;100643.22;5079497;28;20652;-55
2022/12/27 00:34:01;;;;;;;5.38;1.63;;;;;;;2.44;77.83;100644.94;5080449;28;20047;-57
2022/12/27 00:36:30;;;;;;;4.95;1.00;;;;;;;2.42;77.45;100633.75;5078724;28;20051;-58
2022/12/27 00:38:58;;;;;;;3.65;1.27;;;;;;;2.41;77.69;100639.69;5084366;28;20052;-58
2022/12/27 00:41:25;;;;;;;2.25;1.10;;;;;;;2.40;77.23;100637.97;5084973;28;20039;-57
2022/12/27 00:43:51;;;;;;;4.80;0.70;;;;;;;2.38;77.45;100635.34;5082768;28;20052;-57
2022/12/27 00:46:18;;;;;;;4.38;0.65;;;;;;;2.36;77.53;100634.38;5081474;28;20128;-59
2022/12/27 00:48:45;;;;;;;6.75;0.70;;;;;;;2.35;77.62;100635.22;5077793;28;20051;-58
2022/12/27 00:51:16;;;;;;;3.25;0.70;;;;;;;2.34;77.10;100637.69;5081146;28;20051;-57
2022/12/27 00:53:44;;;;;;;3.92;1.10;;;;;;;2.31;78.36;100634.22;5083994;28;20040;-60
2022/12/27 00:56:14;;;;;;;2.08;0.57;;;;;;;2.31;78.08;100639.34;5080630;28;20053;-57
2022/12/27 00:58:41;;;;;;;3.88;0.88;;;;;;;2.30;77.37;100637.56;5077982;28;20132;-57
2022/12/27 01:01:10;;;;;;;2.50;1.05;;;;;;;2.31;77.20;100641.91;5079290;28;20666;-58
2022/12/27 01:03:38;;;;;;;3.15;0.98;;;;;;;2.29;77.57;100638.38;5078902;28;20136;-57
2022/12/27 01:06:11;;;;;;;3.05;0.93;;;;;;;2.27;77.48;100642.56;5080292;28;20048;-59
2022/12/27 01:08:38;;;;;;;6.63;0.80;;;;;;;2.26;77.57;100642.53;5076223;28;20048;-58
2022/12/27 01:11:06;;;;;;;6.60;1.10;;;;;;;2.26;78.10;100634.84;5081137;28;20044;-58
2022/12/27 01:13:33;;;;;;;7.53;1.35;;;;;;;2.24;78.44;100647.56;5079110;28;20040;-59
2022/12/27 01:16:00;;;;;;;2.35;0.95;;;;;;;2.24;77.75;100642.44;5078119;28;20565;-60
2022/12/27 01:18:27;;;;;;;3.28;1.00;;;;;;;2.22;78.08;100649.16;5077079;28;20435;-58
2022/12/27 01:20:54;;;;;;;4.88;1.73;;;;;;;2.21;77.97;100660.22;5080109;28;20093;-57
2022/12/27 01:23:22;;;;;;;3.58;1.02;;;;;;;2.21;78.26;100662.78;5078358;28;20072;-59
2022/12/27 01:25:59;;;;;;;6.65;1.60;;;;;;;2.18;78.61;100662.63;5080630;28;20510;-58
2022/12/27 01:28:28;;;;;;;9.57;1.80;;;;;;;2.18;78.25;100665.19;5083309;28;20398;-60
2022/12/27 01:30:56;;;;;;;3.72;0.80;;;;;;;2.21;78.33;100673.00;5079557;28;20052;-59
2022/12/27 01:33:25;;;;;;;2.80;0.60;;;;;;;2.21;78.97;100673.00;5085158;28;20048;-55
2022/12/27 01:35:53;;;;;;;2.88;0.63;;;;;;;2.22;78.83;100661.94;5087333;28;20054;-59
2022/12/27 01:38:22;;;;;;;2.15;0.70;;;;;;;2.23;78.84;100662.84;5085858;28;20089;-58
2022/12/27 01:40:50;;;;;;;5.57;1.23;;;;;;;2.21;78.75;100672.09;5082555;28;20127;-57
2022/12/27 01:43:19;;;;;;;3.97;0.90;;;;;;;2.21;77.65;100673.00;5083765;28;20055;-58
2022/12/27 01:45:47;;;;;;;2.83;0.80;;;;;;;2.22;78.72;100669.63;5081880;28;20052;-57
2022/12/27 01:48:20;;;;;;;1.83;0.63;;;;;;;2.22;78.86;100678.97;5076905;28;20036;-60
2022/12/27 01:50:53;;;;;;;3.63;0.75;;;;;;;2.23;79.06;100680.72;5076031;28;20060;-59
2022/12/27 01:53:26;;;;;;;2.90;0.98;;;;;;;2.22;78.52;100690.06;5076765;28;20048;-59
2022/12/27 01:55:58;;;;;;;2.85;0.88;;;;;;;2.25;78.14;100694.44;5075556;28;20082;-58
2022/12/27 01:58:29;;;;;;;5.25;0.93;;;;;;;2.23;78.71;100691.81;5073112;28;20050;-59
2022/12/27 02:00:57;;;;;;;3.95;1.08;;;;;;;2.21;78.91;100693.44;5077296;28;20047;-58
2022/12/27 02:03:29;;;;;;;4.53;0.70;;;;;;;2.23;78.57;100696.91;5073215;28;20067;-58
2022/12/27 02:06:00;;;;;;;5.60;0.98;;;;;;;2.25;78.30;100702.09;5075142;28;20506;-59
2022/12/27 02:11:05;;;;;;;5.80;1.75;;;;;;;2.25;78.21;100708.09;5051418;27;20895;-58
2022/12/27 02:13:35;;;;;;;3.05;0.70;;;;;;;2.25;78.02;100714.88;5045161;28;20044;-56
2022/12/27 02:16:10;;;;;;;2.10;1.60;;;;;;;2.26;78.98;100709.84;5040145;28;20088;-58
2022/12/27 02:18:36;;;;;;;4.35;2.33;;;;;;;2.25;78.55;100705.53;5037987;28;20187;-59
2022/12/27 02:24:11;;;;;;;3.15;1.23;;;;;;;2.25;78.52;100700.44;5035994;28;20391;-58
2022/12/27 02:27:17;;;;;;;3.33;1.08;;;;;;;2.25;78.56;100700.44;4999753;28;20039;-55
2022/12/27 02:35:22;;;;;;;5.60;1.85;;;;;;;2.27;78.40;100698.78;5029286;28;20406;-59
2022/12/27 02:37:56;;;;;;;4.07;2.40;;;;;;;2.27;78.53;100701.34;5009727;28;20049;-59
2022/12/27 02:57:53;;;;;;;2.05;0.60;;;;;;;2.25;79.00;100690.19;5076260;27;20907;-59
2022/12/27 03:03:38;;;;;;;4.28;2.22;;;;;;;2.23;78.61;100691.81;5030408;28;20084;-59
2022/12/27 03:17:38;;;;;;;2.83;0.60;;;;;;;2.23;78.50;100698.63;5008783;28;20041;-59
2022/12/27 03:25:50;;;;;;;3.00;1.23;;;;;;;2.18;78.83;100694.19;4987232;28;20115;-58
2022/12/27 03:40:19;;;;;;;5.22;0.98;;;;;;;2.16;79.80;100694.94;5023756;28;20044;-59
2022/12/27 03:48:55;;;;;;;4.20;1.95;;;;;;;2.23;78.98;100696.06;5079436;27;20411;-60
2022/12/27 03:51:25;;;;;;;4.10;0.95;;;;;;;2.24;79.61;100693.56;4992871;28;20057;-57
2022/12/27 03:53:59;;;;;;;4.85;0.90;;;;;;;2.23;80.26;100689.25;4996488;28;20486;-57
2022/12/27 03:56:27;;;;;;;3.15;1.30;;;;;;;2.23;79.09;100691.81;4994682;28;20061;-59
2022/12/27 03:58:57;;;;;;;4.03;2.60;;;;;;;2.21;79.41;100693.44;4992741;28;20054;-59
2022/12/27 04:01:24;;;;;;;3.67;0.85;;;;;;;2.17;80.29;100691.56;4989173;28;20097;-57
2022/12/27 04:03:50;;;;;;;6.70;0.95;;;;;;;2.18;79.79;100691.63;4992417;28;20077;-57
2022/12/27 04:06:17;;;;;;;4.00;0.95;;;;;;;2.17;78.77;100687.31;4984225;28;20133;-57
2022/12/27 04:36:29;;;;;;;6.85;0.70;;;;;;;1.97;79.54;100653.28;5009611;28;20120;-59
2022/12/27 04:38:56;;;;;;;2.78;0.63;;;;;;;1.96;79.04;100659.16;5021270;28;20111;-62
2022/12/27 04:55:23;;;;;;;9.07;0.90;;;;;;;1.88;78.79;100651.19;5031515;28;20092;-58
2022/12/27 04:57:51;;;;;;;5.35;0.95;;;;;;;1.86;78.44;100649.38;5032109;28;20144;-58
2022/12/27 05:03:11;;;;;;;3.33;0.70;;;;;;;1.83;79.75;100645.03;5046673;28;20115;-59
2022/12/27 05:05:39;;;;;;;3.47;0.85;;;;;;;1.86;78.92;100654.50;5022178;28;20084;-59
2022/12/27 05:16:33;;;;;;;2.20;1.45;;;;;;;1.93;79.00;100643.72;5019285;28;20049;-59
2022/12/27 05:19:00;;;;;;;8.20;0.98;;;;;;;1.95;79.99;100644.66;5019567;28;21588;-58
2022/12/27 05:21:26;;;;;;;3.83;1.02;;;;;;;1.95;79.67;100639.53;5017450;28;20144;-57
2022/12/27 05:26:40;;;;;;;3.08;0.50;;;;;;;1.98;79.65;100626.91;5042452;28;20053;-58
2022/12/27 05:29:07;;;;;;;4.80;1.08;;;;;;;1.97;79.15;100632.84;5017614;28;20050;-60
2022/12/27 05:31:34;;;;;;;1.60;0.80;;;;;;;1.97;79.76;100637.06;5021227;28;20975;-57
2022/12/27 05:34:01;;;;;;;3.42;1.10;;;;;;;1.96;78.80;100641.28;5019868;28;20061;-58
2022/12/27 05:36:27;;;;;;;1.20;0.52;;;;;;;1.96;78.64;100636.16;5016377;28;20045;-58
2022/12/27 05:38:54;;;;;;;2.30;1.00;;;;;;;1.95;79.83;100637.00;5022393;28;20049;-60
2022/12/27 05:41:21;;;;;;;1.88;1.33;;;;;;;1.96;79.99;100633.63;5022649;28;20056;-60
2022/12/27 05:43:48;;;;;;;2.40;1.05;;;;;;;1.97;79.85;100643.06;5019826;28;20049;-59
2022/12/27 05:46:17;;;;;;;3.63;1.23;;;;;;;1.99;80.52;100638.88;5014023;28;20037;-57
2022/12/27 05:48:45;;;;;;;1.73;0.70;;;;;;;1.97;80.74;100640.50;5020734;28;20072;-58
2022/12/27 05:51:15;;;;;;;3.17;1.08;;;;;;;1.99;80.58;100636.31;5018122;28;20061;-57
2022/12/27 05:53:41;;;;;;;3.33;1.35;;;;;;;1.99;79.72;100636.31;5018275;28;20390;-58
2022/12/27 05:56:13;;;;;;;6.80;1.17;;;;;;;2.03;80.09;100633.06;5017310;28;20057;-60
2022/12/27 05:58:40;;;;;;;5.05;1.08;;;;;;;2.02;80.12;100635.56;5018494;28;20041;-57
2022/12/27 06:01:11;;;;;;;2.58;0.85;;;;;;;2.08;80.07;100627.28;5019362;28;20540;-60
2022/12/27 06:03:38;;;;;;;1.88;1.13;;;;;;;2.11;79.24;100632.50;5007197;28;20696;-58
2022/12/27 06:06:05;;;;;;;2.47;0.98;;;;;;;2.16;79.74;100623.38;5009754;28;20402;-59
2022/12/27 06:08:34;;;;;;;2.92;1.15;;;;;;;2.16;80.36;100608.03;5007029;28;20351;-58
2022/12/27 06:13:39;;;;;;;3.47;0.45;;;;;;;2.17;79.64;100610.63;5013237;28;20408;-59
2022/12/27 06:16:07;;;;;;;3.15;0.85;;;;;;;2.15;80.37;100601.16;4981157;28;20050;-58
2022/12/27 06:18:35;;;;;;;2.08;0.63;;;;;;;2.15;79.55;100601.16;4979600;28;20494;-58
2022/12/27 06:21:09;;;;;;;1.75;0.73;;;;;;;2.17;81.08;100597.00;4986917;28;20085;-59
2022/12/27 06:23:37;;;;;;;2.90;1.00;;;;;;;2.19;79.68;100608.13;4975487;28;20154;-59
2022/12/27 06:26:06;;;;;;;6.35;1.45;;;;;;;2.21;81.12;100608.22;4976769;28;20082;-57
2022/12/27 06:28:33;;;;;;;2.05;0.70;;;;;;;2.21;80.00;100601.41;4979933;28;20082;-57
2022/12/27 06:31:01;;;;;;;3.53;1.00;;;;;;;2.23;80.35;100604.91;4982957;28;20140;-59
2022/12/27 06:33:27;;;;;;;2.63;0.70;;;;;;;2.23;79.70;100604.91;4980359;28;20082;-56
2022/12/27 06:35:54;;;;;;;5.82;1.52;;;;;;;2.23;80.93;100607.44;4982729;28;20702;-60
2022/12/27 06:38:22;;;;;;;4.88;0.63;;;;;;;2.23;79.80;100597.22;4979613;28;20055;-58
2022/12/27 06:40:48;;;;;;;2.85;0.52;;;;;;;2.23;80.44;100604.91;4981035;28;20458;-58
2022/12/27 06:43:15;;;;;;;6.32;0.98;;;;;;;2.24;79.71;100605.78;4980068;28;20122;-55
2022/12/27 06:45:42;;;;;;;8.60;0.88;;;;;;;2.24;81.38;100599.00;4980031;28;20128;-58
2022/12/27 06:48:08;;;;;;;5.18;0.93;;;;;;;2.24;80.61;100596.44;4974153;28;20134;-57
2022/12/27 06:50:35;;;;;;;6.05;0.82;;;;;;;2.27;80.19;100596.53;4979740;28;20050;-58
2022/12/27 06:53:02;;;;;;;6.03;1.30;;;;;;;2.28;81.54;100587.19;4979774;28;20074;-58
2022/12/27 06:55:28;;;;;;;4.55;1.77;;;;;;;2.29;81.48;100589.81;4979953;28;20074;-59
2022/12/27 06:57:55;;;;;;;4.82;0.80;;;;;;;2.30;80.65;100590.69;4978331;28;20064;-59
2022/12/27 07:00:22;;;;;;;4.43;2.50;;;;;;;2.31;80.69;100598.44;4980657;28;20090;-59
2022/12/27 07:02:48;;;;;;;4.43;1.35;;;;;;;2.31;80.72;100582.22;4974166;28;20963;-57
2022/12/27 07:05:15;;;;;;;6.32;2.13;;;;;;;2.29;80.78;100583.81;4976265;28;20038;-56
2022/12/27 07:07:42;;;;;;;9.77;3.10;;;;;;;2.30;81.27;100586.44;4976843;28;20578;-57
2022/12/27 07:10:08;;;;;;;5.15;1.67;;;;;;;2.33;80.78;100584.84;4975362;28;21429;-59
2022/12/27 07:12:36;;;;;;;5.20;2.08;;;;;;;2.34;81.17;100584.91;4974278;28;20498;-58
2022/12/27 07:15:04;;;;;;;6.88;1.13;;;;;;;2.35;81.24;100578.97;4976793;28;20066;-57
2022/12/27 07:17:33;;;;;;;4.75;2.40;;;;;;;2.37;81.05;100571.34;4973412;28;20129;-58
2022/12/27 07:20:02;;;;;;;5.30;1.38;;;;;;;2.40;81.15;100579.16;4979692;28;20046;-57
2022/12/27 07:22:28;;;;;;;6.78;2.13;;;;;;;2.46;80.67;100575.97;4974556;28;20070;-58
2022/12/27 07:24:55;;;;;;;10.93;1.75;;;;;;;2.48;81.61;100580.31;4961833;28;20057;-58
2022/12/27 07:27:22;;;;;;;7.57;2.83;;;;;;;2.52;81.23;100571.94;4963725;28;20050;-57
2022/12/27 07:29:49;;;;;;;7.78;1.90;;;;;;;2.54;81.38;100570.31;4965739;28;20082;-59
2022/12/27 07:32:15;;;;;;;4.15;1.60;;;;;;;2.55;80.71;100566.97;4966051;28;20046;-57
2022/12/27 07:34:42;;;;;;;5.65;2.10;;;;;;;2.59;80.61;100572.16;4964406;28;20058;-58
2022/12/27 07:37:08;;;;;;;9.10;2.15;;;;;;;2.60;80.90;100568.81;4960650;28;20101;-60
2022/12/27 07:39:35;;;;;;;6.75;1.40;;;;;;;2.64;80.90;100578.34;4964368;28;20526;-58
2022/12/27 07:42:02;;;;;;;5.07;1.25;;;;;;;2.67;81.03;100581.03;4959254;28;20039;-57
2022/12/27 07:44:33;;;;;;;5.43;1.60;;;;;;;2.71;81.81;100582.91;4958530;28;20125;-58
2022/12/27 07:47:00;;;;;;;7.43;1.80;;;;;;;2.73;81.66;100585.50;4961127;28;20047;-59
2022/12/27 07:49:27;;;;;;;12.07;3.33;;;;;;;2.79;81.46;100580.59;4962546;28;20136;-57
2022/12/27 07:51:53;;;;;;;8.18;2.55;;;;;;;2.83;81.26;100572.22;4959564;28;20132;-58
2022/12/27 07:54:20;;;;;;;4.82;2.05;;;;;;;2.85;81.00;100574.84;4965920;28;20046;-57
2022/12/27 07:56:47;;;;;;;10.60;3.47;;;;;;;2.88;81.24;100575.84;4962258;28;20488;-57
2022/12/27 07:59:14;;;;;;;7.50;2.30;;;;;;;2.89;81.53;100576.72;4961175;28;20192;-58
2022/12/27 08:04:27;;;;;;;8.75;2.45;;;;;;;2.98;81.89;100578.75;4961021;28;20543;-56
2022/12/27 08:07:00;;;;;;;4.13;1.88;;;;;;;3.02;81.83;100572.91;4965028;28;20121;-56
2022/12/27 08:09:30;;;;;;;5.53;2.08;;;;;;;3.07;82.09;100579.94;4961421;28;20047;-58
2022/12/27 08:11:56;;;;;;;5.60;2.75;;;;;;;3.12;81.84;100569.00;4960201;28;20051;-59
2022/12/27 08:14:23;;;;;;;2.85;1.45;;;;;;;3.16;81.90;100575.97;4961444;28;20227;-59
2022/12/27 08:16:50;;;;;;;6.90;2.92;;;;;;;3.18;82.34;100575.22;4967785;28;20665;-57
2022/12/27 08:19:16;;;;;;;3.65;1.60;;;;;;;3.22;82.00;100573.66;4964647;28;20046;-56
2022/12/27 08:21:43;;;;;;;4.32;1.17;;;;;;;3.22;82.13;100566.81;4966532;28;20047;-57
2022/12/27 08:24:10;;;;;;;2.53;0.75;;;;;;;3.25;82.25;100571.22;4969410;28;20065;-59
2022/12/27 08:26:36;;;;;;;4.13;0.95;;;;;;;3.30;82.62;100558.53;4963517;28;20047;-55
2022/12/27 08:29:03;;;;;;;2.10;0.95;;;;;;;3.29;82.89;100567.94;4961004;28;20039;-58
2022/12/27 08:31:30;;;;;;;4.40;1.55;;;;;;;3.34;82.09;100571.53;4967657;28;20081;-57
2022/12/27 08:33:56;;;;;;;4.05;1.02;;;;;;;3.38;81.91;100566.50;4968837;28;20074;-58
2022/12/27 08:36:24;;;;;;;1.38;1.08;;;;;;;3.38;82.64;100566.50;4964190;28;20061;-59
2022/12/27 08:39:11;;;;;;;10.63;2.00;;;;;;;3.42;82.36;100558.13;4963758;28;20051;-62
2022/12/27 08:41:38;;;;;;;4.07;1.63;;;;;;;3.44;82.62;100556.47;4964830;28;20050;-59
2022/12/27 08:44:05;;;;;;;7.22;1.30;;;;;;;3.47;82.78;100554.00;4965878;28;20047;-58
2022/12/27 08:46:31;;;;;;;3.92;1.50;;;;;;;3.50;82.55;100551.56;4964113;28;20059;-57
2022/12/27 08:48:58;;;;;;;6.15;2.38;;;;;;;3.51;81.94;100557.56;4966192;28;20091;-57
2022/12/27 08:51:25;;;;;;;4.75;0.82;;;;;;;3.54;82.69;100557.66;4963757;28;20047;-57
2022/12/27 08:54:06;;;;;;;5.82;1.17;;;;;;;3.54;82.40;100553.41;4966031;28;20109;-58
2022/12/27 08:56:32;;;;;;;1.98;0.60;;;;;;;3.58;82.70;100545.00;4963093;28;20105;-58
2022/12/27 08:58:59;;;;;;;3.67;1.85;;;;;;;3.62;82.46;100555.38;4964249;28;20698;-58
2022/12/27 09:01:26;;;;;;;1.30;0.70;;;;;;;3.65;82.08;100558.88;4960410;28;20051;-56
2022/12/27 09:03:53;;;;;;;1.73;0.98;;;;;;;3.68;82.43;100561.56;4958190;28;20526;-57
2022/12/27 09:06:22;;;;;;;4.53;1.38;;;;;;;3.71;82.40;100566.78;4959843;28;20475;-58
2022/12/27 09:08:51;;;;;;;3.88;1.65;;;;;;;3.76;82.62;100569.53;4963768;28;20058;-59
2022/12/27 09:14:00;;;;;;;6.00;0.93;;;;;;;3.78;82.40;100567.88;5015113;27;20920;-59
2022/12/27 09:16:28;;;;;;;3.33;1.27;;;;;;;3.80;82.57;100563.69;4991555;28;20049;-58
2022/12/27 09:18:57;;;;;;;3.40;0.98;;;;;;;3.84;82.18;100557.84;4998431;28;20046;-59
2022/12/27 09:21:26;;;;;;;11.75;2.28;;;;;;;3.89;82.71;100564.78;4988978;28;20042;-59
2022/12/27 09:23:54;;;;;;;10.40;2.00;;;;;;;3.90;82.46;100566.53;4991607;28;20121;-57
2022/12/27 09:26:25;;;;;;;5.53;1.38;;;;;;;3.94;82.85;100568.38;4990660;28;20078;-59
2022/12/27 09:28:52;;;;;;;3.67;1.02;;;;;;;3.95;83.12;100552.19;4986807;28;20046;-57
2022/12/27 09:31:22;;;;;;;2.33;1.00;;;;;;;4.00;82.53;100548.06;5000405;28;20538;-57
2022/12/27 09:33:49;;;;;;;4.43;2.00;;;;;;;4.04;82.59;100547.34;4987272;28;20057;-59
2022/12/27 09:36:19;;;;;;;1.50;1.33;;;;;;;4.08;82.42;100536.38;4986546;28;20042;-57
2022/12/27 09:38:47;;;;;;;3.67;1.33;;;;;;;4.10;82.74;100539.00;4990781;28;20065;-60
2022/12/27 09:44:01;;;;;;;4.85;1.80;;;;;;;4.19;82.56;100539.25;5035266;27;21489;-58
2022/12/27 09:47:00;;;;;;;8.10;1.65;;;;;;;4.22;82.09;100523.13;5025873;28;20637;-57
2022/12/27 09:49:37;;;;;;;1.77;0.82;;;;;;;4.24;82.25;100517.22;5040612;28;20451;-58
2022/12/27 09:52:17;;;;;;;4.13;2.13;;;;;;;4.28;82.33;100518.19;5030757;28;20042;-59
2022/12/27 09:55:00;;;;;;;3.80;1.77;;;;;;;4.32;82.87;100514.03;5029804;28;20053;-59
2022/12/27 09:57:36;;;;;;;6.05;2.13;;;;;;;4.31;82.52;100515.72;5030366;28;20136;-59
2022/12/27 10:00:19;;;;;;;3.58;1.42;;;;;;;4.41;82.14;100513.41;5036487;28;20056;-59
2022/12/27 10:03:04;;;;;;;5.85;1.65;;;;;;;4.42;82.15;100515.19;5027609;28;20057;-58
2022/12/27 10:05:32;;;;;;;;;;;;;;;4.37;82.26;100508.22;5028046;28;20041;-56
2022/12/27 10:21:24;;;;;;;3.15;0.70;;;;;;;4.65;82.25;100507.25;5059929;28;20419;-59
2022/12/27 10:23:58;;;;;;;2.55;0.73;;;;;;;4.67;82.00;100506.50;5007789;28;20061;-58
2022/12/27 10:26:25;;;;;;;3.20;0.82;;;;;;;4.70;81.67;100503.16;5000341;28;20100;-58
2022/12/27 10:31:31;;;;;;;2.40;0.73;;;;;;;4.82;81.75;100503.50;5033652;28;20399;-60
2022/12/27 10:33:59;;;;;;;5.60;1.38;;;;;;;5.04;82.42;100478.41;5003182;28;20690;-57
2022/12/27 10:36:28;;;;;;;2.67;1.38;;;;;;;5.58;81.48;100473.81;5002819;28;20050;-60
2022/12/27 10:38:55;;;;;;;2.35;0.88;;;;;;;6.15;81.67;100474.28;5003932;28;20050;-59
2022/12/27 10:43:59;;;;;;;6.60;1.77;;;;;;;6.77;80.21;100461.84;5000100;28;20405;-59
2022/12/27 10:46:30;;;;;;;4.07;1.85;;;;;;;6.73;80.02;100451.44;4967809;28;20051;-60
2022/12/27 10:49:02;;;;;;;7.93;1.15;;;;;;;6.67;79.46;100445.34;4969057;28;20094;-58
2022/12/27 10:51:48;;;;;;;5.97;1.42;;;;;;;6.62;79.53;100441.78;4969144;28;20057;-58
2022/12/27 10:54:21;;;;;;;3.00;1.75;;;;;;;6.53;79.35;100428.75;4972334;28;20073;-57
2022/12/27 10:56:47;;;;;;;5.35;1.48;;;;;;;6.52;79.95;100419.31;4968935;28;20192;-58
2022/12/27 10:59:25;;;;;;;6.03;1.30;;;;;;;6.50;79.77;100418.38;4967676;28;20078;-58
2022/12/27 11:02:15;;;;;;;2.22;1.40;;;;;;;6.47;79.63;100415.75;4965821;28;20055;-58
2022/12/27 11:04:59;;;;;;;3.40;2.10;;;;;;;6.47;79.96;100410.59;4965095;28;20148;-62
2022/12/27 11:07:31;;;;;;;3.95;2.15;;;;;;;6.45;80.31;100408.00;4961843;28;20094;-59
2022/12/27 11:10:15;;;;;;;2.63;1.20;;;;;;;6.41;79.88;100401.06;4967724;28;20530;-60
2022/12/27 11:13:03;;;;;;;2.40;1.55;;;;;;;6.39;80.44;100390.72;4964831;28;20081;-58
2022/12/27 11:15:33;;;;;;;7.85;1.73;;;;;;;6.40;79.61;100389.91;4969682;28;20051;-59
2022/12/27 11:18:09;;;;;;;3.00;0.98;;;;;;;6.37;79.46;100384.69;4993270;28;20054;-59
2022/12/27 11:20:39;;;;;;;7.00;1.80;;;;;;;6.35;79.21;100367.50;4988905;28;20177;-57
2022/12/27 11:28:38;;;;;;;5.30;2.08;;;;;;;6.52;79.82;100353.25;5076503;27;20388;-58
2022/12/27 11:31:09;;;;;;;5.63;1.90;;;;;;;6.51;79.64;100360.94;5060625;28;20040;-58
2022/12/27 11:33:53;;;;;;;5.70;1.95;;;;;;;6.51;79.80;100358.34;5051901;28;20111;-60
2022/12/27 11:39:04;;;;;;;3.33;1.15;;;;;;;6.55;80.22;100344.69;5105778;27;20892;-60
2022/12/27 11:41:39;;;;;;;4.43;1.40;;;;;;;6.58;79.36;100337.03;5101334;28;20423;-58
2022/12/27 11:44:26;;;;;;;1.60;0.82;;;;;;;6.56;80.05;100323.28;5100510;28;20074;-56
2022/12/27 11:47:11;;;;;;;3.33;0.40;;;;;;;6.59;80.67;100330.19;5097976;28;20468;-58
2022/12/27 11:49:51;;;;;;;1.67;0.55;;;;;;;6.55;80.19;100330.13;5094123;27;20161;-58
2022/12/27 11:52:58;;;;;;;3.95;0.80;;;;;;;6.54;80.73;100315.53;5097833;28;20151;-60
2022/12/27 11:55:51;;;;;;;9.82;0.57;;;;;;;6.57;80.09;100299.28;5099259;28;20075;-58
2022/12/27 12:09:37;;;;;;;5.68;0.93;;;;;;;6.79;81.23;100254.19;5100877;27;20400;-59
2022/12/27 12:18:35;;;;;;;3.58;0.70;;;;;;;6.79;81.48;100222.44;5057702;28;20377;-56
2022/12/27 12:38:01;;;;;;;1.73;0.60;;;;;;;7.10;81.14;100171.38;5090640;27;20386;-60
2022/12/27 12:43:37;;;;;;;2.42;0.50;;;;;;;7.20;80.46;100156.91;5032760;28;21316;-58
2022/12/27 12:54:40;;;;;;;5.20;1.85;;;;;;;7.32;80.33;100126.13;5024878;27;20398;-58
2022/12/27 12:57:35;;;;;;;4.70;1.45;;;;;;;7.34;81.81;100128.72;5002183;28;20096;-59
2022/12/27 13:00:18;;;;;;;3.92;1.42;;;;;;;7.38;81.72;100117.63;5011185;28;20089;-57
2022/12/27 13:06:06;;;;;;;1.88;0.60;;;;;;;7.51;81.21;100104.84;5098229;27;20735;-57
2022/12/27 13:11:41;;;;;;;6.10;1.67;;;;;;;7.55;81.30;100101.47;5006245;28;20384;-59
2022/12/27 13:22:51;;;;;;;1.48;0.55;;;;;;;7.67;79.79;100070.66;5034920;28;20799;-60
2022/12/27 13:28:24;;;;;;;4.57;0.70;;;;;;;7.71;79.94;100072.41;5083093;27;20397;-60
2022/12/27 13:33:47;;;;;;;5.85;1.95;;;;;;;7.75;80.69;100068.16;5060056;27;20383;-59
2022/12/27 13:39:30;;;;;;;10.90;2.05;;;;;;;7.82;80.51;100058.75;5064950;28;20386;-59
2022/12/27 13:53:14;;;;;;;4.45;0.68;;;;;;;7.97;80.00;100038.25;5022289;28;20927;-57
2022/12/27 13:58:38;;;;;;;9.93;1.15;;;;;;;8.04;80.47;100023.66;5035382;28;20403;-60
2022/12/27 14:04:19;;;;;;;4.30;1.40;;;;;;;8.07;80.09;100012.53;5045841;28;20749;-58
2022/12/27 14:10:07;;;;;;;12.55;2.60;;;;;;;8.09;79.94;100008.25;5060885;27;20890;-60
2022/12/27 14:12:56;;;;;;;3.03;1.52;;;;;;;8.09;79.64;100005.66;5034136;28;20128;-59
2022/12/27 14:18:31;;;;;;;4.28;0.88;;;;;;;8.39;78.98;99986.06;5060876;27;20394;-60
2022/12/27 14:21:37;;;;;;;5.80;1.42;;;;;;;8.31;79.89;99985.16;5017891;28;20065;-59
2022/12/27 14:30:21;;;;;;;6.93;1.70;;;;;;;8.40;79.53;99956.81;5059026;28;20395;-59
2022/12/27 14:33:27;;;;;;;5.65;1.08;;;;;;;8.44;79.83;99950.81;5014185;28;20522;-61
2022/12/27 14:36:34;;;;;;;4.00;1.05;;;;;;;8.42;79.23;99942.22;5019771;28;20642;-58
2022/12/27 14:42:10;;;;;;;6.35;2.00;;;;;;;8.47;78.94;99935.34;5025529;27;20735;-61
2022/12/27 15:01:59;;;;;;;5.93;2.22;;;;;;;8.62;78.35;99907.88;5046594;28;20394;-61
2022/12/27 15:04:51;;;;;;;3.25;2.22;;;;;;;8.58;78.40;99906.16;5020819;28;20041;-62
2022/12/27 15:07:57;;;;;;;2.28;2.05;;;;;;;8.62;78.67;99892.41;5030310;28;20099;-63
2022/12/27 15:32:39;;;;;;;3.83;1.55;;;;;;;8.85;77.70;99864.03;5022511;27;20395;-60
2022/12/27 15:35:28;;;;;;;3.47;1.17;;;;;;;8.61;78.49;99854.50;5006132;28;20097;-59
2022/12/27 15:38:06;;;;;;;2.55;0.65;;;;;;;8.60;78.53;99852.78;5003869;28;20049;-60
2022/12/27 15:46:16;;;;;;;3.70;0.88;;;;;;;8.47;77.78;99847.56;5035196;28;20404;-62
2022/12/27 15:54:24;;;;;;;4.25;0.73;;;;;;;8.46;77.83;99851.03;5019430;27;20897;-60
2022/12/27 16:05:10;;;;;;;4.32;0.65;;;;;;;8.46;78.36;99830.38;5037274;28;20402;-62
2022/12/27 16:26:27;;;;;;;1.75;0.68;;;;;;;8.30;78.85;99780.44;5080870;27;20396;-58
2022/12/27 16:29:03;;;;;;;;;;;;;;;8.30;79.12;99782.13;5082415;28;21508;-59
2022/12/27 16:31:34;;;;;;;1.65;0.93;;;;;;;8.35;78.64;99776.13;5076586;28;19985;-62
2022/12/27 16:34:24;;;;;;;2.85;0.98;;;;;;;8.35;78.65;99772.72;5076299;28;20048;-61
2022/12/27 16:36:53;;;;;;;3.65;0.93;;;;;;;8.31;78.78;99769.25;5082006;28;20114;-61
2022/12/27 16:42:07;;;;;;;4.60;0.77;;;;;;;8.34;78.88;99764.09;5024441;28;20893;-60
2022/12/27 16:45:01;;;;;;;5.25;1.30;;;;;;;8.32;78.51;99764.94;4999239;28;20500;-62
2022/12/27 16:47:58;;;;;;;2.75;1.10;;;;;;;8.33;78.91;99762.38;5021242;28;20524;-61
2022/12/27 16:50:34;;;;;;;6.30;0.98;;;;;;;8.31;79.96;99758.06;5020743;28;20700;-61
2022/12/27 16:56:13;;;;;;;3.15;1.13;;;;;;;8.27;80.61;99748.63;5039260;27;20395;-60
2022/12/27 16:58:40;;;;;;;3.47;1.58;;;;;;;8.30;79.95;99752.03;5016985;28;20070;-60
2022/12/27 17:01:28;;;;;;;2.17;0.85;;;;;;;8.28;80.20;99734.84;5019101;28;20070;-62
2022/12/27 17:03:56;;;;;;;1.98;0.50;;;;;;;8.25;79.81;99729.66;5018599;28;20064;-61
2022/12/27 17:12:05;;;;;;;5.03;2.08;;;;;;;8.18;80.16;99716.75;5091666;27;20437;-61
2022/12/27 17:14:36;;;;;;;3.92;2.72;;;;;;;8.25;80.99;99714.19;5080932;28;20454;-61
2022/12/27 17:17:16;;;;;;;6.28;2.42;;;;;;;8.21;80.82;99698.69;5084689;28;20098;-61
2022/12/27 17:20:05;;;;;;;3.65;1.77;;;;;;;8.17;81.01;99701.28;5070514;28;20072;-59
2022/12/27 17:22:33;;;;;;;12.52;3.75;;;;;;;8.19;80.88;99697.84;5063678;28;20051;-60
2022/12/27 17:25:02;;;;;;;5.15;2.47;;;;;;;8.22;80.64;99697.88;5066552;28;20143;-59
2022/12/27 17:49:49;;;;;;;2.80;0.63;;;;;;;8.05;81.18;99658.28;5046459;27;20457;-60
2022/12/27 17:58:14;;;;;;;4.85;2.28;;;;;;;7.93;81.37;99653.94;5020759;28;20091;-60
2022/12/27 18:03:18;;;;;;;3.22;0.93;;;;;;;7.96;82.12;99644.50;5059816;28;20404;-60
2022/12/27 18:05:46;;;;;;;4.05;0.85;;;;;;;7.93;81.37;99638.47;5008263;27;20101;-59
2022/12/27 18:08:21;;;;;;;3.80;0.85;;;;;;;7.91;81.73;99635.03;5003315;28;20081;-61
2022/12/27 18:10:48;;;;;;;2.10;0.77;;;;;;;7.89;82.47;99622.16;4998945;28;20042;-60
2022/12/27 18:13:18;;;;;;;1.65;0.60;;;;;;;7.86;81.94;99621.28;5005696;28;20053;-59
2022/12/27 18:15:48;;;;;;;6.47;1.00;;;;;;;7.87;82.41;99623.00;5004005;28;20065;-61
2022/12/27 18:18:19;;;;;;;3.08;0.70;;;;;;;7.86;82.72;99621.28;5003321;28;20084;-60